createdAt,value
2022-08-03T00:02:31.879Z,18.61
2022-08-03T00:07:34.766Z,18.54
2022-08-03T00:12:38.863Z,18.48
2022-08-03T00:17:53.280Z,18.44
2022-08-03T00:22:56.619Z,18.37
2022-08-03T00:28:00.803Z,18.27
2022-08-03T00:33:03.773Z,18.25
2022-08-03T00:38:06.809Z,18.21
2022-08-03T00:43:11.544Z,18.14
2022-08-03T00:48:19.767Z,18.03
2022-08-03T00:53:36.782Z,17.97
2022-08-03T00:58:40.936Z,17.93
2022-08-03T01:03:43.938Z,17.86
2022-08-03T01:08:53.451Z,17.73
2022-08-03T01:14:18.313Z,17.65
2022-08-03T01:19:37.515Z,17.63
2022-08-03T01:24:51.869Z,17.46
2022-08-03T01:30:05.460Z,17.37
2022-08-03T01:35:11.734Z,17.40
2022-08-03T01:40:16.884Z,17.36
2022-08-03T01:45:23.595Z,17.33
2022-08-03T01:50:30.321Z,17.23
2022-08-03T01:55:35.723Z,17.09
2022-08-03T02:00:41.752Z,17.09
2022-08-03T02:05:46.902Z,17.07
2022-08-03T02:10:51.230Z,17.02
2022-08-03T02:15:56.664Z,16.98
2022-08-03T02:21:01.497Z,16.85
2022-08-03T02:26:18.594Z,16.76
2022-08-03T02:31:25.502Z,16.75
2022-08-03T02:36:31.381Z,16.75
2022-08-03T02:41:38.421Z,16.73
2022-08-03T02:46:48.066Z,16.61
2022-08-03T02:51:54.319Z,16.49
2022-08-03T02:56:59.543Z,16.52
2022-08-03T03:02:04.376Z,16.46
2022-08-03T03:07:07.553Z,16.46
2022-08-03T03:12:14.163Z,16.39
2022-08-03T03:17:20.697Z,16.35
2022-08-03T03:22:25.492Z,16.29
2022-08-03T03:27:28.418Z,16.25
2022-08-03T03:32:34.229Z,16.24
2022-08-03T03:37:37.094Z,16.12
2022-08-03T03:42:39.999Z,16.11
2022-08-03T03:47:45.553Z,16.06
2022-08-03T03:52:48.406Z,16.03
2022-08-03T03:57:51.448Z,16.05
2022-08-03T04:02:55.870Z,16.04
2022-08-03T04:08:18.275Z,16.04
2022-08-03T04:13:22.969Z,16.07
2022-08-03T04:18:29.743Z,16.04
2022-08-03T04:23:36.723Z,16.03
2022-08-03T04:28:42.350Z,16.04
2022-08-03T04:33:47.434Z,16.01
2022-08-03T04:39:01.693Z,16.04
2022-08-03T04:44:06.310Z,16.15
2022-08-03T04:49:11.269Z,16.20
2022-08-03T04:54:17.045Z,16.25
2022-08-03T04:59:19.815Z,16.36
2022-08-03T05:04:24.041Z,16.45
2022-08-03T05:09:49.789Z,16.57
2022-08-03T05:14:49.594Z,16.71
2022-08-03T05:19:53.835Z,16.82
2022-08-03T05:24:56.767Z,16.92
2022-08-03T05:30:31.225Z,17.03
2022-08-03T05:36:01.382Z,17.27
2022-08-03T05:40:56.736Z,17.48
2022-08-03T05:46:01.757Z,17.79
2022-08-03T05:51:16.971Z,18.17
2022-08-03T05:56:23.556Z,18.52
2022-08-03T06:01:26.523Z,18.88
2022-08-03T06:06:32.413Z,19.39
2022-08-03T06:11:35.348Z,19.71
2022-08-03T06:16:38.558Z,19.95
2022-08-03T06:21:42.940Z,20.37
2022-08-03T06:26:48.047Z,20.72
2022-08-03T06:31:51.016Z,20.97
2022-08-03T06:36:59.953Z,21.37
2022-08-03T06:42:04.888Z,21.50
2022-08-03T06:47:08.648Z,21.77
2022-08-03T06:52:12.973Z,22.00
2022-08-03T06:57:37.095Z,22.24
2022-08-03T07:02:40.433Z,22.62
2022-08-03T07:07:44.857Z,22.90
2022-08-03T07:12:55.855Z,22.93
2022-08-03T07:18:00.058Z,23.21
2022-08-03T07:23:04.424Z,23.38
2022-08-03T07:28:08.263Z,23.79
2022-08-03T07:33:11.038Z,24.17
2022-08-03T07:38:16.265Z,24.41
2022-08-03T07:43:19.204Z,24.63
2022-08-03T07:48:22.076Z,24.95
2022-08-03T07:53:27.883Z,25.08
2022-08-03T07:58:30.671Z,25.59
2022-08-03T08:03:52.164Z,25.98
2022-08-03T08:09:01.744Z,26.38
2022-08-03T08:14:05.462Z,26.60
2022-08-03T08:19:08.322Z,26.95
2022-08-03T08:24:18.284Z,27.30
2022-08-03T08:29:24.104Z,27.85
2022-08-03T08:34:26.884Z,27.79
2022-08-03T08:39:31.702Z,28.23
2022-08-03T08:44:38.021Z,28.80
2022-08-03T08:49:53.446Z,29.27
2022-08-03T08:55:08.397Z,29.17
2022-08-03T09:00:14.945Z,29.48
2022-08-03T09:10:49.660Z,29.34
2022-08-03T09:16:11.182Z,29.79
2022-08-03T09:21:31.047Z,29.49
2022-08-03T09:26:38.780Z,30.05
2022-08-03T09:31:45.041Z,30.50
2022-08-03T09:36:50.647Z,30.43
2022-08-03T09:42:09.746Z,30.48
2022-08-03T09:47:14.293Z,31.06
2022-08-03T09:52:31.677Z,31.08
2022-08-03T09:57:48.676Z,31.49
2022-08-03T10:03:05.450Z,31.14
2022-08-03T10:08:16.720Z,31.48
2022-08-03T10:13:22.637Z,31.20
2022-08-03T10:18:26.635Z,31.17
2022-08-03T10:23:33.511Z,31.61
2022-08-03T10:28:45.356Z,31.75
2022-08-03T10:33:53.028Z,32.06
2022-08-03T10:38:57.246Z,32.35
2022-08-03T10:44:06.673Z,32.48
2022-08-03T10:49:13.325Z,32.74
2022-08-03T10:55:03.079Z,32.77
2022-08-03T11:00:10.751Z,33.26
2022-08-03T11:05:26.883Z,33.00
2022-08-03T11:10:32.610Z,32.98
2022-08-03T11:15:38.595Z,33.17
2022-08-03T11:20:52.454Z,33.28
2022-08-03T11:26:15.549Z,33.91
2022-08-03T11:31:50.589Z,33.83
2022-08-03T11:37:22.308Z,34.37
2022-08-03T11:42:45.585Z,35.09
2022-08-03T11:47:54.953Z,35.58
2022-08-03T11:52:57.833Z,35.74
2022-08-03T11:59:12.804Z,35.87
2022-08-03T12:08:52.271Z,35.83
2022-08-03T12:14:30.063Z,36.41
2022-08-03T12:19:19.497Z,37.14
2022-08-03T12:24:22.593Z,39.20
2022-08-03T12:29:25.763Z,37.91
2022-08-03T12:34:49.075Z,38.37
2022-08-03T12:40:00.498Z,37.46
2022-08-03T12:45:23.292Z,35.23
2022-08-03T12:50:32.826Z,37.54
2022-08-03T12:55:57.344Z,40.36
2022-08-03T13:00:59.144Z,39.41
2022-08-03T13:06:03.816Z,40.18
2022-08-03T13:11:52.542Z,42.13
2022-08-03T13:16:47.433Z,43.73
2022-08-03T13:21:53.595Z,44.54
2022-08-03T13:28:12.307Z,45.81
2022-08-03T13:32:30.313Z,44.14
2022-08-03T13:37:34.840Z,44.91
2022-08-03T13:42:38.941Z,45.15
2022-08-03T13:47:42.877Z,44.79
2022-08-03T13:52:47.503Z,44.79
2022-08-03T13:58:18.929Z,42.23
2022-08-03T14:03:14.728Z,42.36
2022-08-03T14:08:44.796Z,44.33
2022-08-03T14:13:47.599Z,46.32
2022-08-03T14:18:50.560Z,45.69
2022-08-03T14:23:55.224Z,46.00
2022-08-03T14:28:58.115Z,49.02
2022-08-03T14:34:01.053Z,46.78
2022-08-03T14:39:05.346Z,47.85
2022-08-03T14:44:08.528Z,44.52
2022-08-03T14:50:31.791Z,42.29
2022-08-03T14:54:35.482Z,47.25
2022-08-03T14:59:56.190Z,50.99
2022-08-03T15:05:00.229Z,47.89
2022-08-03T15:10:04.941Z,53.28
2022-08-03T15:15:09.010Z,48.17
2022-08-03T15:20:22.486Z,52.82
2022-08-03T15:26:31.703Z,52.58
2022-08-03T15:30:52.879Z,53.57
2022-08-03T15:35:56.198Z,53.73
2022-08-03T15:41:00.455Z,54.78
2022-08-03T15:46:28.121Z,53.91
2022-08-03T15:51:25.985Z,55.94
2022-08-03T15:56:31.160Z,57.15
2022-08-03T16:01:34.044Z,54.08
2022-08-03T16:06:37.994Z,56.96
2022-08-03T16:11:44.259Z,56.17
2022-08-03T16:16:47.157Z,53.90
2022-08-03T16:21:50.427Z,54.10
2022-08-03T16:26:54.613Z,54.14
2022-08-03T16:31:57.416Z,52.57
2022-08-03T16:37:07.929Z,52.89
2022-08-03T16:42:24.538Z,53.61
2022-08-03T16:47:27.374Z,53.89
2022-08-03T16:52:30.099Z,53.34
2022-08-03T16:57:59.343Z,53.04
2022-08-03T17:02:58.555Z,49.02
2022-08-03T17:08:04.334Z,47.75
2022-08-03T17:13:21.578Z,44.54
2022-08-03T17:18:29.713Z,41.48
2022-08-03T17:23:42.955Z,40.89
2022-08-03T17:28:57.540Z,38.17
2022-08-03T17:34:04.430Z,37.88
2022-08-03T17:39:09.815Z,37.36
2022-08-03T17:44:35.196Z,35.74
2022-08-03T17:49:41.014Z,35.22
2022-08-03T17:55:56.673Z,34.59
2022-08-03T18:00:42.641Z,33.94
2022-08-03T18:06:11.276Z,33.50
2022-08-03T18:11:14.988Z,33.07
2022-08-03T18:16:26.104Z,32.78
2022-08-03T18:22:02.032Z,32.35
2022-08-03T18:26:55.472Z,32.08
2022-08-03T18:32:03.881Z,31.81
2022-08-03T18:37:08.750Z,31.55
2022-08-03T18:42:19.637Z,31.20
2022-08-03T18:47:50.815Z,30.98
2022-08-03T18:53:03.866Z,30.71
2022-08-03T18:58:33.614Z,30.38
2022-08-03T19:03:41.506Z,30.12
2022-08-03T19:08:48.811Z,29.82
2022-08-03T19:13:53.993Z,29.52
2022-08-03T19:19:00.916Z,29.19
2022-08-03T19:24:10.113Z,28.88
2022-08-03T19:29:15.024Z,28.60
2022-08-03T19:34:21.110Z,28.41
2022-08-03T19:39:27.300Z,28.13
2022-08-03T19:44:33.299Z,27.92
2022-08-03T19:50:04.891Z,27.69
2022-08-03T19:55:05.986Z,27.45
2022-08-03T20:00:12.527Z,27.21
2022-08-03T20:05:19.260Z,27.03
2022-08-03T20:10:22.321Z,26.83
2022-08-03T20:15:31.572Z,26.67
2022-08-03T20:20:37.979Z,26.53
2022-08-03T20:25:48.624Z,26.35
2022-08-03T20:30:59.921Z,26.22
2022-08-03T20:36:04.607Z,26.05
2022-08-03T20:41:07.736Z,25.96
2022-08-03T20:46:31.032Z,25.83
2022-08-03T20:51:50.350Z,25.66
2022-08-03T20:56:56.505Z,25.52
2022-08-03T21:01:59.258Z,25.36
2022-08-03T21:07:14.740Z,25.23
2022-08-03T21:12:31.129Z,25.03
2022-08-03T21:17:40.874Z,24.82
2022-08-03T21:22:49.815Z,24.69
2022-08-03T21:27:52.993Z,24.40
2022-08-03T21:32:57.340Z,24.30
2022-08-03T21:38:15.809Z,24.18
2022-08-03T21:43:19.124Z,24.04
2022-08-03T21:48:25.151Z,23.94
2022-08-03T21:54:00.432Z,23.81
2022-08-03T21:58:55.921Z,23.56
2022-08-03T22:03:58.948Z,23.51
2022-08-03T22:09:04.625Z,23.48
2022-08-03T22:14:07.572Z,23.34
2022-08-03T22:19:10.483Z,23.20
2022-08-03T22:24:17.143Z,23.12
2022-08-03T22:29:20.128Z,22.96
2022-08-03T22:34:26.826Z,22.91
2022-08-03T22:39:32.285Z,22.76
2022-08-03T22:44:36.566Z,22.56
2022-08-03T22:49:40.075Z,22.39
2022-08-03T22:54:44.344Z,22.35
2022-08-03T22:59:47.463Z,22.32
2022-08-03T23:04:53.118Z,22.25
2022-08-03T23:09:57.643Z,22.13
2022-08-03T23:15:03.129Z,22.03
2022-08-03T23:20:09.446Z,21.92
2022-08-03T23:25:13.952Z,21.76
2022-08-03T23:30:17.044Z,21.65
2022-08-03T23:36:28.146Z,21.56
2022-08-03T23:41:05.231Z,21.53
2022-08-03T23:46:10.004Z,21.39
2022-08-03T23:51:25.711Z,21.20
2022-08-03T23:56:42.715Z,21.20
